createdAt,value
2019-04-20T00:00:54.451Z,3.92
2019-04-20T00:03:26.009Z,4.15
2019-04-20T00:06:01.687Z,3.62
2019-04-20T00:08:33.203Z,4.00
2019-04-20T00:11:07.268Z,4.35
2019-04-20T00:13:40.670Z,4.30
2019-04-20T00:16:00.001Z,4.17
2019-04-20T00:18:34.503Z,3.92
2019-04-20T00:21:05.653Z,4.50
2019-04-20T00:23:39.917Z,3.67
2019-04-20T00:26:14.834Z,4.03
2019-04-20T00:28:58.670Z,3.58
2019-04-20T00:31:23.446Z,4.45
2019-04-20T00:33:49.679Z,4.10
2019-04-20T00:36:07.413Z,3.80
2019-04-20T00:38:45.314Z,4.90
2019-04-20T00:41:10.391Z,4.47
2019-04-20T00:43:39.118Z,4.00
2019-04-20T00:46:18.372Z,4.00
2019-04-20T00:48:47.507Z,4.60
2019-04-20T00:51:26.286Z,4.55
2019-04-20T00:53:41.514Z,5.08
2019-04-20T00:56:07.551Z,4.55
2019-04-20T00:58:50.786Z,4.33
2019-04-20T01:01:27.761Z,4.47
2019-04-20T01:03:49.670Z,4.55
2019-04-20T01:06:38.419Z,5.33
2019-04-20T01:08:51.384Z,5.30
2019-04-20T01:11:27.510Z,4.65
2019-04-20T01:13:55.376Z,5.42
2019-04-20T01:16:29.554Z,5.03
2019-04-20T01:18:49.273Z,5.92
2019-04-20T01:21:21.541Z,6.58
2019-04-20T01:23:53.289Z,6.40
2019-04-20T01:26:19.716Z,6.45
2019-04-20T01:29:01.785Z,6.15
2019-04-20T01:31:28.446Z,5.42
2019-04-20T01:33:58.908Z,5.25
2019-04-20T01:36:37.153Z,5.03
2019-04-20T01:39:01.443Z,5.42
2019-04-20T01:41:18.140Z,5.35
2019-04-20T01:43:46.412Z,5.60
2019-04-20T01:46:19.957Z,5.05
2019-04-20T01:48:46.250Z,5.05
2019-04-20T01:51:21.198Z,5.35
2019-04-20T01:54:06.322Z,5.42
2019-04-20T01:56:32.909Z,5.40
2019-04-20T01:59:06.067Z,5.20
2019-04-20T02:01:37.457Z,5.62
2019-04-20T02:04:15.805Z,5.60
2019-04-20T02:06:46.195Z,5.80
2019-04-20T02:09:15.023Z,6.17
2019-04-20T02:11:43.056Z,5.87
2019-04-20T02:14:11.991Z,5.30
2019-04-20T02:16:45.872Z,5.12
2019-04-20T02:19:26.670Z,5.85
2019-04-20T02:21:55.425Z,5.65
2019-04-20T02:24:12.510Z,5.33
2019-04-20T02:26:40.974Z,5.78
2019-04-20T02:29:37.478Z,5.70
2019-04-20T02:32:23.681Z,5.47
2019-04-20T02:37:45.144Z,5.87
2019-04-20T02:39:46.294Z,5.75
2019-04-20T02:42:22.656Z,5.37
2019-04-20T02:44:53.035Z,5.45
2019-04-20T02:49:50.950Z,5.80
2019-04-20T02:54:46.405Z,5.97
2019-04-20T03:02:01.485Z,6.42
2019-04-20T03:04:25.813Z,5.62
2019-04-20T03:07:02.302Z,6.10
2019-04-20T03:09:36.474Z,7.17
2019-04-20T03:12:09.640Z,6.40
2019-04-20T03:14:26.559Z,8.63
2019-04-20T03:17:03.310Z,6.08
2019-04-20T03:19:28.635Z,5.72
2019-04-20T03:22:09.453Z,5.83
2019-04-20T03:24:39.073Z,5.85
2019-04-20T03:27:00.761Z,6.45
2019-04-20T03:29:45.721Z,5.75
2019-04-20T03:32:44.265Z,6.00
2019-04-20T03:37:21.299Z,5.92
2019-04-20T03:39:40.565Z,5.60
2019-04-20T03:41:56.980Z,4.80
2019-04-20T03:44:27.858Z,5.58
2019-04-20T03:46:59.743Z,5.85
2019-04-20T03:49:48.358Z,5.92
2019-04-20T03:52:26.170Z,6.22
2019-04-20T03:55:17.459Z,5.65
2019-04-20T03:57:58.717Z,5.92
2019-04-20T04:00:31.115Z,5.70
2019-04-20T04:05:36.900Z,5.50
2019-04-20T04:08:04.303Z,5.75
2019-04-20T04:10:33.673Z,5.83
2019-04-20T04:13:12.712Z,6.42
2019-04-20T04:15:48.767Z,8.25
2019-04-20T04:18:21.272Z,8.33
2019-04-20T04:20:49.770Z,8.50
2019-04-20T04:23:32.667Z,6.20
2019-04-20T04:26:00.678Z,6.17
2019-04-20T04:28:30.003Z,6.05
2019-04-20T04:31:04.087Z,5.92
2019-04-20T04:33:51.990Z,5.85
2019-04-20T04:35:59.178Z,5.85
2019-04-20T04:38:37.771Z,6.03
2019-04-20T04:41:08.480Z,6.50
2019-04-20T04:43:36.019Z,6.60
2019-04-20T04:45:44.707Z,6.00
2019-04-20T04:48:18.987Z,6.28
2019-04-20T04:50:50.871Z,6.35
2019-04-20T04:53:28.552Z,6.58
2019-04-20T04:55:50.823Z,6.35
2019-04-20T04:58:12.837Z,6.83
2019-04-20T05:00:42.481Z,6.33
2019-04-20T05:03:28.466Z,6.90
2019-04-20T05:06:06.465Z,6.00
2019-04-20T05:08:27.420Z,6.78
2019-04-20T05:10:49.973Z,6.67
2019-04-20T05:13:18.292Z,7.08
2019-04-20T05:16:00.440Z,7.15
2019-04-20T05:18:41.509Z,6.62
2019-04-20T05:21:13.101Z,7.95
2019-04-20T05:23:31.709Z,8.30
2019-04-20T05:26:22.684Z,8.45
2019-04-20T05:28:41.625Z,7.87
2019-04-20T05:31:02.993Z,10.60
2019-04-20T05:33:48.839Z,9.70
2019-04-20T05:36:20.504Z,9.88
2019-04-20T05:39:19.566Z,9.83
2019-04-20T05:41:17.004Z,9.13
2019-04-20T05:44:00.747Z,9.85
2019-04-20T05:46:37.085Z,9.50
2019-04-20T05:49:13.409Z,9.65
2019-04-20T05:51:47.746Z,9.85
2019-04-20T05:54:09.798Z,9.05
2019-04-20T05:56:44.502Z,9.25
2019-04-20T05:59:09.103Z,8.98
2019-04-20T06:01:40.810Z,9.50
2019-04-20T06:04:04.250Z,9.20
2019-04-20T06:06:40.419Z,9.45
2019-04-20T06:09:11.631Z,8.90
2019-04-20T06:11:53.184Z,9.10
2019-04-20T06:14:08.049Z,9.30
2019-04-20T06:16:59.412Z,9.25
2019-04-20T06:22:03.522Z,8.53
2019-04-20T06:24:39.845Z,8.63
2019-04-20T06:27:14.581Z,8.95
2019-04-20T06:29:31.259Z,8.35
2019-04-20T06:32:06.929Z,8.25
2019-04-20T06:37:03.658Z,8.03
2019-04-20T06:42:10.860Z,7.45
2019-04-20T06:49:33.242Z,7.85
2019-04-20T06:52:24.356Z,7.70
2019-04-20T06:54:53.712Z,8.18
2019-04-20T06:57:29.137Z,6.92
2019-04-20T06:59:57.831Z,7.50
2019-04-20T07:02:33.743Z,7.83
2019-04-20T07:05:10.024Z,7.53
2019-04-20T07:07:26.621Z,8.10
2019-04-20T07:12:22.820Z,8.00
2019-04-20T07:14:48.269Z,7.75
2019-04-20T07:17:40.772Z,7.80
2019-04-20T07:20:02.784Z,7.08
2019-04-20T07:22:33.735Z,6.85
2019-04-20T07:25:01.375Z,7.10
2019-04-20T07:27:35.398Z,7.22
2019-04-20T07:30:03.859Z,6.95
2019-04-20T07:32:32.604Z,6.37
2019-04-20T07:35:02.372Z,6.35
2019-04-20T07:40:07.378Z,6.55
2019-04-20T07:42:41.197Z,6.40
2019-04-20T07:45:13.106Z,5.92
2019-04-20T07:47:42.896Z,6.12
2019-04-20T07:50:03.715Z,6.50
2019-04-20T07:52:14.546Z,7.12
2019-04-20T07:55:26.353Z,5.97
2019-04-20T07:57:30.658Z,5.90
2019-04-20T07:59:59.142Z,5.72
2019-04-20T08:02:58.720Z,6.70
2019-04-20T08:05:18.215Z,5.75
2019-04-20T08:07:43.115Z,5.20
2019-04-20T08:10:09.135Z,5.35
2019-04-20T08:15:36.472Z,5.65
2019-04-20T08:17:54.831Z,5.20
2019-04-20T08:20:21.784Z,5.20
2019-04-20T08:22:55.240Z,5.25
2019-04-20T08:25:16.774Z,5.00
2019-04-20T08:27:52.945Z,5.10
2019-04-20T08:30:57.176Z,5.10
2019-04-20T08:33:32.565Z,4.50
2019-04-20T08:36:09.172Z,4.62
2019-04-20T08:41:00.146Z,5.00
2019-04-20T08:43:42.554Z,4.62
2019-04-20T08:46:00.353Z,4.47
2019-04-20T08:48:32.849Z,4.62
2019-04-20T08:51:01.877Z,5.28
2019-04-20T08:53:30.882Z,5.47
2019-04-20T08:55:54.265Z,5.28
2019-04-20T08:58:11.381Z,5.35
2019-04-20T09:00:48.537Z,5.58
2019-04-20T09:03:19.407Z,6.47
2019-04-20T09:05:49.066Z,5.17
2019-04-20T09:08:17.842Z,5.60
2019-04-20T09:11:00.001Z,5.25
2019-04-20T09:13:21.432Z,5.60
2019-04-20T09:15:40.452Z,5.62
2019-04-20T09:18:29.048Z,6.00
2019-04-20T09:21:01.124Z,5.75
2019-04-20T09:23:36.368Z,6.15
2019-04-20T09:26:16.092Z,5.65
2019-04-20T09:28:38.463Z,5.80
2019-04-20T09:31:16.644Z,5.12
2019-04-20T09:33:51.440Z,5.83
2019-04-20T09:36:21.078Z,5.25
2019-04-20T09:39:08.597Z,5.17
2019-04-20T09:41:54.865Z,6.08
2019-04-20T09:44:04.685Z,5.15
2019-04-20T09:46:43.195Z,6.05
2019-04-20T09:49:15.737Z,6.17
2019-04-20T09:51:50.048Z,5.80
2019-04-20T09:54:24.416Z,5.53
2019-04-20T09:56:56.682Z,4.92
2019-04-20T09:59:22.046Z,5.50
2019-04-20T10:01:41.939Z,5.30
2019-04-20T10:04:03.443Z,5.15
2019-04-20T10:06:34.550Z,5.22
2019-04-20T10:09:04.801Z,5.58
2019-04-20T10:11:31.927Z,5.83
2019-04-20T10:14:00.172Z,5.53
2019-04-20T10:16:29.431Z,5.55
2019-04-20T10:18:58.756Z,5.65
2019-04-20T10:21:27.736Z,5.20
2019-04-20T10:23:56.601Z,5.72
2019-04-20T10:26:24.826Z,5.05
2019-04-20T10:28:53.327Z,4.50
2019-04-20T10:31:22.371Z,4.12
2019-04-20T10:33:51.416Z,4.75
2019-04-20T10:36:37.591Z,5.30
2019-04-20T10:39:08.745Z,5.15
2019-04-20T10:41:45.168Z,5.58
2019-04-20T10:44:07.233Z,5.33
2019-04-20T10:46:36.237Z,6.50
2019-04-20T10:49:05.970Z,4.80
2019-04-20T10:51:35.377Z,4.70
2019-04-20T10:54:04.594Z,4.70
2019-04-20T10:56:33.727Z,5.10
2019-04-20T10:59:01.963Z,5.47
2019-04-20T11:01:31.628Z,5.70
2019-04-20T11:04:00.730Z,5.80
2019-04-20T11:06:29.010Z,4.55
2019-04-20T11:08:58.486Z,3.90
2019-04-20T11:11:29.977Z,3.62
2019-04-20T11:14:01.920Z,3.42
2019-04-20T11:16:28.514Z,3.67
2019-04-20T11:18:57.755Z,4.17
2019-04-20T11:21:26.337Z,4.37
2019-04-20T11:23:54.505Z,4.33
2019-04-20T11:26:22.694Z,4.20
2019-04-20T11:28:52.269Z,3.30
2019-04-20T11:31:21.892Z,3.17
2019-04-20T11:33:50.618Z,3.42
2019-04-20T11:36:19.160Z,3.80
2019-04-20T11:38:48.969Z,4.10
2019-04-20T11:41:23.724Z,3.30
2019-04-20T11:43:47.821Z,3.90
2019-04-20T11:46:16.568Z,3.35
2019-04-20T11:48:45.435Z,3.33
2019-04-20T11:51:13.886Z,3.33
2019-04-20T11:53:42.651Z,3.40
2019-04-20T11:56:14.631Z,3.08
2019-04-20T11:58:40.841Z,3.30
2019-04-20T12:01:23.395Z,3.02
2019-04-20T12:03:58.398Z,3.00
2019-04-20T12:06:19.314Z,3.47
2019-04-20T12:08:48.909Z,3.20
2019-04-20T12:11:26.469Z,3.65
2019-04-20T12:13:47.248Z,3.33
2019-04-20T12:16:15.436Z,3.27
2019-04-20T12:18:44.354Z,3.05
2019-04-20T12:21:12.959Z,3.10
2019-04-20T12:23:42.340Z,3.52
2019-04-20T12:26:10.951Z,3.02
2019-04-20T12:28:40.050Z,3.15
2019-04-20T12:31:11.888Z,3.25
2019-04-20T12:33:38.544Z,3.45
2019-04-20T12:36:08.285Z,2.67
2019-04-20T12:38:37.038Z,3.45
2019-04-20T12:41:07.476Z,3.85
2019-04-20T12:43:36.020Z,3.33
2019-04-20T12:46:05.427Z,2.67
2019-04-20T12:48:33.725Z,2.37
2019-04-20T12:51:03.635Z,2.77
2019-04-20T12:53:32.763Z,2.30
2019-04-20T12:56:02.198Z,2.90
2019-04-20T12:58:30.666Z,2.30
2019-04-20T13:00:58.857Z,2.10
2019-04-20T13:03:27.670Z,2.15
2019-04-20T13:05:56.177Z,2.12
2019-04-20T13:08:30.415Z,1.98
2019-04-20T13:10:55.904Z,2.00
2019-04-20T13:13:41.034Z,2.20
2019-04-20T13:16:12.214Z,2.02
2019-04-20T13:18:47.959Z,2.12
2019-04-20T13:21:16.738Z,1.90
2019-04-20T13:23:45.355Z,2.00
2019-04-20T13:26:14.440Z,2.17
2019-04-20T13:28:43.456Z,1.90
2019-04-20T13:31:11.778Z,1.72
2019-04-20T13:33:41.230Z,1.60
2019-04-20T13:36:10.299Z,1.75
2019-04-20T13:38:38.509Z,1.70
2019-04-20T13:41:06.688Z,1.37
2019-04-20T13:43:35.521Z,1.65
2019-04-20T13:46:04.912Z,1.57
2019-04-20T13:48:33.449Z,1.57
2019-04-20T13:51:02.341Z,1.32
2019-04-20T13:53:30.776Z,1.57
2019-04-20T13:55:59.324Z,1.82
2019-04-20T13:58:45.445Z,1.50
2019-04-20T14:01:30.787Z,1.62
2019-04-20T14:04:06.205Z,1.90
2019-04-20T14:06:35.262Z,1.65
2019-04-20T14:09:05.554Z,1.98
2019-04-20T14:11:33.862Z,1.32
2019-04-20T14:14:05.266Z,1.80
2019-04-20T14:16:31.935Z,1.70
2019-04-20T14:19:00.861Z,1.62
2019-04-20T14:21:30.208Z,1.65
2019-04-20T14:23:59.133Z,1.52
2019-04-20T14:26:27.675Z,1.90
2019-04-20T14:28:56.775Z,1.70
2019-04-20T14:31:25.901Z,1.75
2019-04-20T14:33:55.012Z,1.72
2019-04-20T14:36:24.338Z,1.65
2019-04-20T14:38:54.191Z,1.60
2019-04-20T14:41:22.453Z,1.70
2019-04-20T14:43:51.286Z,1.65
2019-04-20T14:46:20.911Z,1.57
2019-04-20T14:48:49.448Z,1.60
2019-04-20T14:51:17.924Z,1.90
2019-04-20T14:53:47.196Z,1.80
2019-04-20T14:56:15.698Z,1.60
2019-04-20T14:59:03.331Z,1.55
2019-04-20T15:01:36.619Z,1.67
2019-04-20T15:04:12.851Z,1.80
2019-04-20T15:06:38.027Z,2.05
2019-04-20T15:09:06.735Z,2.00
2019-04-20T15:11:38.158Z,1.90
2019-04-20T15:14:05.287Z,2.00
2019-04-20T15:16:34.864Z,2.05
2019-04-20T15:19:05.388Z,2.00
2019-04-20T15:21:35.639Z,1.98
2019-04-20T15:24:03.919Z,2.10
2019-04-20T15:26:32.406Z,2.05
2019-04-20T15:33:00.988Z,1.87
2019-04-20T15:35:30.202Z,1.85
2019-04-20T15:37:59.487Z,2.05
2019-04-20T15:40:28.929Z,1.92
2019-04-20T15:43:05.905Z,1.90
2019-04-20T15:45:27.733Z,1.87
2019-04-20T15:47:56.326Z,2.20
2019-04-20T15:50:25.659Z,2.02
2019-04-20T15:52:56.589Z,3.27
2019-04-20T15:55:30.347Z,3.52
2019-04-20T15:57:55.433Z,3.77
2019-04-20T16:00:24.604Z,3.72
2019-04-20T16:02:54.457Z,3.30
2019-04-20T16:05:28.230Z,3.55
2019-04-20T16:08:00.586Z,4.00
2019-04-20T16:10:28.482Z,4.00
2019-04-20T16:13:11.940Z,3.77
2019-04-20T16:15:27.599Z,3.80
2019-04-20T16:17:56.798Z,4.37
2019-04-20T16:20:26.814Z,4.70
2019-04-20T16:22:56.388Z,4.72
2019-04-20T16:25:35.378Z,4.20
2019-04-20T16:28:03.740Z,3.98
2019-04-20T16:30:33.713Z,3.55
2019-04-20T16:33:02.783Z,3.65
2019-04-20T16:35:32.207Z,4.00
2019-04-20T16:38:00.475Z,4.00
2019-04-20T16:40:29.471Z,3.58
2019-04-20T16:42:58.499Z,3.98
2019-04-20T16:45:27.545Z,3.85
2019-04-20T16:47:58.802Z,3.27
2019-04-20T16:50:26.911Z,3.35
2019-04-20T16:52:55.198Z,3.42
2019-04-20T16:55:23.373Z,3.52
2019-04-20T16:57:52.980Z,4.15
2019-04-20T17:00:21.251Z,4.03
2019-04-20T17:02:50.096Z,3.90
2019-04-20T17:05:18.934Z,3.50
2019-04-20T17:07:53.099Z,3.77
2019-04-20T17:10:22.397Z,3.77
2019-04-20T17:12:51.595Z,3.47
2019-04-20T17:15:21.505Z,3.67
2019-04-20T17:17:51.602Z,3.70
2019-04-20T17:20:19.860Z,4.03
2019-04-20T17:22:48.697Z,3.67
2019-04-20T17:25:16.981Z,3.95
2019-04-20T17:27:59.458Z,3.70
2019-04-20T17:30:35.802Z,3.80
2019-04-20T17:33:06.279Z,3.72
2019-04-20T17:35:43.482Z,3.80
2019-04-20T17:38:04.876Z,3.47
2019-04-20T17:40:51.209Z,3.60
2019-04-20T17:43:12.731Z,3.20
2019-04-20T17:45:43.246Z,3.37
2019-04-20T17:48:17.630Z,3.27
2019-04-20T17:50:56.165Z,3.35
2019-04-20T17:53:22.932Z,3.37
2019-04-20T17:55:53.468Z,3.17
2019-04-20T17:58:27.880Z,3.25
2019-04-20T18:01:23.000Z,3.83
2019-04-20T18:04:23.243Z,3.72
2019-04-20T18:06:39.490Z,3.60
2019-04-20T18:09:07.107Z,3.90
2019-04-20T18:11:25.663Z,4.28
2019-04-20T18:14:05.580Z,4.00
2019-04-20T18:16:46.820Z,4.40
2019-04-20T18:19:07.391Z,3.92
2019-04-20T18:21:32.943Z,4.10
2019-04-20T18:24:05.242Z,4.20
2019-04-20T18:26:56.112Z,4.08
2019-04-20T18:29:20.203Z,4.53
2019-04-20T18:32:23.224Z,4.30
2019-04-20T18:35:04.550Z,4.70
2019-04-20T18:37:32.689Z,4.50
2019-04-20T18:40:06.193Z,4.33
2019-04-20T18:42:37.168Z,4.70
2019-04-20T18:45:17.227Z,4.53
2019-04-20T18:47:50.602Z,4.58
2019-04-20T18:50:10.508Z,4.50
2019-04-20T18:52:31.669Z,4.33
2019-04-20T18:55:01.535Z,4.40
2019-04-20T18:57:32.700Z,4.50
2019-04-20T19:00:00.921Z,4.92
2019-04-20T19:02:34.788Z,4.55
2019-04-20T19:05:02.127Z,4.12
2019-04-20T19:07:34.857Z,4.17
2019-04-20T19:10:09.346Z,4.85
2019-04-20T19:12:41.413Z,4.83
2019-04-20T19:15:27.947Z,4.62
2019-04-20T19:18:04.285Z,4.40
2019-04-20T19:20:34.977Z,4.85
2019-04-20T19:23:04.164Z,4.58
2019-04-20T19:25:36.731Z,4.30
2019-04-20T19:28:04.702Z,4.90
2019-04-20T19:30:41.240Z,4.28
2019-04-20T19:33:20.563Z,4.40
2019-04-20T19:35:41.853Z,4.10
2019-04-20T19:38:10.519Z,4.12
2019-04-20T19:40:45.631Z,4.47
2019-04-20T19:43:15.565Z,4.25
2019-04-20T19:46:00.086Z,4.45
2019-04-20T19:48:17.666Z,5.22
2019-04-20T19:50:57.720Z,5.05
2019-04-20T19:53:26.423Z,4.92
2019-04-20T19:55:49.086Z,5.37
2019-04-20T19:58:18.790Z,5.10
2019-04-20T20:00:53.472Z,5.17
2019-04-20T20:03:19.749Z,5.22
2019-04-20T20:05:51.820Z,5.35
2019-04-20T20:08:23.487Z,4.85
2019-04-20T20:10:48.522Z,5.22
2019-04-20T20:13:18.125Z,5.60
2019-04-20T20:15:47.001Z,6.05
2019-04-20T20:18:33.122Z,5.47
2019-04-20T20:20:59.614Z,5.40
2019-04-20T20:23:16.258Z,5.37
2019-04-20T20:25:47.551Z,5.12
2019-04-20T20:28:29.898Z,5.30
2019-04-20T20:30:56.844Z,4.72
2019-04-20T20:33:37.364Z,5.35
2019-04-20T20:35:53.623Z,4.50
2019-04-20T20:38:22.830Z,5.30
2019-04-20T20:40:54.848Z,4.75
2019-04-20T20:43:23.083Z,4.42
2019-04-20T20:46:01.376Z,4.97
2019-04-20T20:48:31.360Z,4.85
2019-04-20T20:51:06.447Z,4.37
2019-04-20T20:53:21.930Z,5.10
2019-04-20T20:55:48.750Z,4.87
2019-04-20T20:58:19.172Z,6.12
2019-04-20T21:00:55.845Z,5.97
2019-04-20T21:03:22.461Z,5.83
2019-04-20T21:05:45.382Z,5.58
2019-04-20T21:08:13.857Z,6.33
2019-04-20T21:10:44.297Z,6.08
2019-04-20T21:13:13.861Z,5.55
2019-04-20T21:15:45.342Z,5.45
2019-04-20T21:18:33.301Z,5.92
2019-04-20T21:21:00.046Z,5.28
2019-04-20T21:23:28.405Z,5.10
2019-04-20T21:26:01.279Z,5.20
2019-04-20T21:28:29.776Z,4.87
2019-04-20T21:31:08.077Z,4.70
2019-04-20T21:33:34.243Z,4.80
2019-04-20T21:36:00.885Z,5.42
2019-04-20T21:38:35.537Z,5.60
2019-04-20T21:41:05.079Z,5.42
2019-04-20T21:43:34.766Z,5.60
2019-04-20T21:46:04.604Z,5.22
2019-04-20T21:48:45.302Z,4.78
2019-04-20T21:51:15.286Z,4.45
2019-04-20T21:53:33.410Z,4.60
2019-04-20T21:56:00.060Z,4.92
2019-04-20T21:58:35.447Z,5.30
2019-04-20T22:01:09.242Z,4.80
2019-04-20T22:03:28.107Z,5.25
2019-04-20T22:06:02.363Z,4.80
2019-04-20T22:08:32.575Z,4.97
2019-04-20T22:11:01.837Z,4.67
2019-04-20T22:13:36.148Z,4.80
2019-04-20T22:16:05.183Z,5.00
2019-04-20T22:18:31.810Z,5.05
2019-04-20T22:21:12.303Z,5.40
2019-04-20T22:23:47.524Z,5.72
2019-04-20T22:26:11.983Z,5.33
2019-04-20T22:28:31.997Z,5.22
2019-04-20T22:31:00.279Z,5.90
2019-04-20T22:33:35.030Z,5.70
2019-04-20T22:36:04.191Z,5.70
2019-04-20T22:38:55.861Z,5.25
2019-04-20T22:41:20.154Z,5.53
2019-04-20T22:43:50.366Z,6.15
2019-04-20T22:46:24.783Z,6.62
2019-04-20T22:48:59.547Z,6.20
2019-04-20T22:51:34.291Z,7.55
2019-04-20T22:54:03.801Z,7.28
2019-04-20T22:56:35.326Z,6.47
2019-04-20T22:58:57.547Z,6.37
2019-04-20T23:01:29.852Z,6.78
2019-04-20T23:03:48.671Z,6.35
2019-04-20T23:06:17.471Z,5.92
2019-04-20T23:08:55.671Z,5.30
2019-04-20T23:11:23.611Z,5.37
2019-04-20T23:13:49.697Z,4.62
2019-04-20T23:16:17.635Z,4.62
2019-04-20T23:18:46.402Z,4.83
2019-04-20T23:21:17.383Z,4.85
2019-04-20T23:23:45.731Z,4.62
2019-04-20T23:26:19.346Z,4.50
2019-04-20T23:28:48.282Z,5.08
2019-04-20T23:31:19.679Z,4.80
2019-04-20T23:33:44.002Z,4.87
2019-04-20T23:36:12.193Z,5.62
2019-04-20T23:38:44.227Z,5.17
2019-04-20T23:41:10.302Z,5.22
2019-04-20T23:43:49.299Z,5.62
2019-04-20T23:46:31.126Z,5.90
2019-04-20T23:49:22.310Z,5.45
2019-04-20T23:52:05.450Z,5.22
2019-04-20T23:54:22.090Z,5.03
2019-04-20T23:56:46.224Z,4.78
2019-04-20T23:59:14.815Z,5.03
